createdAt,value
2018-11-13T00:00:07.000Z,1002.68
2018-11-13T00:01:06.996Z,1002.63
2018-11-13T00:02:06.986Z,1002.56
2018-11-13T00:03:06.969Z,1002.51
2018-11-13T00:04:06.960Z,1002.47
2018-11-13T00:05:06.950Z,1002.54
2018-11-13T00:06:07.141Z,1002.52
2018-11-13T00:07:06.930Z,1002.50
2018-11-13T00:08:06.920Z,1002.54
2018-11-13T00:09:06.910Z,1002.58
2018-11-13T00:10:06.901Z,1002.59
2018-11-13T00:11:06.890Z,1002.61
2018-11-13T00:12:06.881Z,1002.64
2018-11-13T00:13:06.871Z,1002.66
2018-11-13T00:14:06.861Z,1002.70
2018-11-13T00:15:06.851Z,1002.71
2018-11-13T00:16:06.841Z,1002.74
2018-11-13T00:17:06.832Z,1002.77
2018-11-13T00:18:06.821Z,1002.73
2018-11-13T00:19:06.815Z,1002.75
2018-11-13T00:20:06.802Z,1002.74
2018-11-13T00:21:06.793Z,1002.72
2018-11-13T00:22:06.781Z,1002.67
2018-11-13T00:23:06.772Z,1002.65
2018-11-13T00:24:06.882Z,1002.67
2018-11-13T00:25:06.752Z,1002.68
2018-11-13T00:26:06.742Z,1002.67
2018-11-13T00:27:06.737Z,1002.71
2018-11-13T00:28:06.723Z,1002.72
2018-11-13T00:29:06.917Z,1002.66
2018-11-13T00:30:06.703Z,1002.69
2018-11-13T00:31:06.693Z,1002.72
2018-11-13T00:32:06.683Z,1002.75
2018-11-13T00:33:06.674Z,1002.77
2018-11-13T00:34:06.666Z,1002.77
2018-11-13T00:35:06.654Z,1002.77
2018-11-13T00:36:06.645Z,1002.81
2018-11-13T00:37:06.634Z,1002.81
2018-11-13T00:38:06.624Z,1002.79
2018-11-13T00:39:06.889Z,1002.80
2018-11-13T00:40:06.605Z,1002.78
2018-11-13T00:41:06.604Z,1002.82
2018-11-13T00:42:06.592Z,1002.81
2018-11-13T00:43:06.577Z,1002.85
2018-11-13T00:44:06.565Z,1002.84
2018-11-13T00:45:06.556Z,1002.79
2018-11-13T00:46:06.590Z,1002.79
2018-11-13T00:47:06.536Z,1002.78
2018-11-13T00:48:06.527Z,1002.76
2018-11-13T00:49:06.518Z,1002.69
2018-11-13T00:50:07.084Z,1002.65
2018-11-13T00:51:06.497Z,1002.68
2018-11-13T00:52:06.487Z,1002.66
2018-11-13T00:53:06.478Z,1002.80
2018-11-13T00:54:06.466Z,1002.86
2018-11-13T00:55:06.457Z,1002.88
2018-11-13T00:56:06.447Z,1002.92
2018-11-13T00:57:06.447Z,1002.98
2018-11-13T00:58:06.427Z,1003.01
2018-11-13T00:59:06.417Z,1003.05
2018-11-13T01:00:06.411Z,1003.11
2018-11-13T01:01:06.397Z,1003.13
2018-11-13T01:02:06.732Z,1003.11
2018-11-13T01:03:06.378Z,1003.12
2018-11-13T01:04:06.370Z,1003.15
2018-11-13T01:05:06.396Z,1003.19
2018-11-13T01:06:06.348Z,1003.19
2018-11-13T01:07:06.339Z,1003.18
2018-11-13T01:08:06.333Z,1003.22
2018-11-13T01:09:06.320Z,1003.22
2018-11-13T01:10:06.359Z,1003.27
2018-11-13T01:11:06.299Z,1003.29
2018-11-13T01:12:06.289Z,1003.26
2018-11-13T01:13:06.279Z,1003.24
2018-11-13T01:14:06.519Z,1003.26
2018-11-13T01:15:06.272Z,1003.27
2018-11-13T01:16:06.249Z,1003.31
2018-11-13T01:17:06.237Z,1003.37
2018-11-13T01:18:06.227Z,1003.29
2018-11-13T01:19:06.218Z,1003.28
2018-11-13T01:20:06.207Z,1003.28
2018-11-13T01:21:06.198Z,1003.31
2018-11-13T01:22:06.187Z,1003.26
2018-11-13T01:23:06.175Z,1003.33
2018-11-13T01:24:06.416Z,1003.34
2018-11-13T01:25:06.157Z,1003.29
2018-11-13T01:26:06.147Z,1003.25
2018-11-13T01:27:06.135Z,1003.20
2018-11-13T01:28:06.125Z,1003.14
2018-11-13T01:29:06.115Z,1003.20
2018-11-13T01:30:06.104Z,1003.21
2018-11-13T01:31:06.094Z,1003.15
2018-11-13T01:32:06.084Z,1003.19
2018-11-13T01:33:06.074Z,1003.16
2018-11-13T01:34:06.063Z,1003.22
2018-11-13T01:35:06.053Z,1003.18
2018-11-13T01:36:06.043Z,1003.13
2018-11-13T01:37:06.035Z,1003.12
2018-11-13T01:38:06.025Z,1003.11
2018-11-13T01:39:06.012Z,1003.02
2018-11-13T01:40:06.002Z,1002.99
2018-11-13T01:41:05.997Z,1003.03
2018-11-13T01:42:05.980Z,1002.97
2018-11-13T01:43:05.970Z,1002.95
2018-11-13T01:44:05.960Z,1002.94
2018-11-13T01:45:05.950Z,1002.93
2018-11-13T01:46:05.938Z,1002.96
2018-11-13T01:47:05.929Z,1003.07
2018-11-13T01:48:05.986Z,1003.03
2018-11-13T01:49:05.909Z,1003.10
2018-11-13T01:50:05.905Z,1003.15
2018-11-13T01:51:05.888Z,1003.16
2018-11-13T01:52:05.877Z,1003.23
2018-11-13T01:53:05.867Z,1003.21
2018-11-13T01:54:05.912Z,1003.25
2018-11-13T01:55:05.847Z,1003.25
2018-11-13T01:56:05.838Z,1003.34
2018-11-13T01:57:05.885Z,1003.40
2018-11-13T01:58:05.816Z,1003.43
2018-11-13T01:59:05.808Z,1003.42
2018-11-13T02:00:05.796Z,1003.37
2018-11-13T02:01:05.785Z,1003.34
2018-11-13T02:02:05.775Z,1003.30
2018-11-13T02:03:05.768Z,1003.35
2018-11-13T02:04:05.756Z,1003.31
2018-11-13T02:05:05.743Z,1003.34
2018-11-13T02:06:05.733Z,1003.35
2018-11-13T02:07:05.723Z,1003.38
2018-11-13T02:08:05.713Z,1003.38
2018-11-13T02:09:05.703Z,1003.42
2018-11-13T02:10:05.691Z,1003.46
2018-11-13T02:11:05.682Z,1003.41
2018-11-13T02:12:05.671Z,1003.32
2018-11-13T02:13:05.661Z,1003.32
2018-11-13T02:14:05.651Z,1003.28
2018-11-13T02:15:05.890Z,1003.29
2018-11-13T02:16:05.630Z,1003.37
2018-11-13T02:17:05.626Z,1003.38
2018-11-13T02:18:05.613Z,1003.44
2018-11-13T02:19:05.599Z,1003.42
2018-11-13T02:20:05.590Z,1003.41
2018-11-13T02:21:05.578Z,1003.32
2018-11-13T02:22:05.770Z,1003.28
2018-11-13T02:23:05.562Z,1003.24
2018-11-13T02:24:05.547Z,1003.23
2018-11-13T02:25:05.538Z,1003.21
2018-11-13T02:26:05.534Z,1003.22
2018-11-13T02:27:05.515Z,1003.21
2018-11-13T02:28:05.508Z,1003.16
2018-11-13T02:29:05.497Z,1003.19
2018-11-13T02:30:05.486Z,1003.21
2018-11-13T02:31:05.476Z,1003.25
2018-11-13T02:32:05.468Z,1003.31
2018-11-13T02:33:05.456Z,1003.26
2018-11-13T02:34:05.445Z,1003.26
2018-11-13T02:35:05.434Z,1003.26
2018-11-13T02:36:05.425Z,1003.23
2018-11-13T02:37:05.416Z,1003.14
2018-11-13T02:38:05.403Z,1003.10
2018-11-13T02:39:05.393Z,1003.06
2018-11-13T02:40:05.383Z,1003.01
2018-11-13T02:41:05.373Z,1003.00
2018-11-13T02:42:05.366Z,1003.02
2018-11-13T02:43:05.351Z,1002.98
2018-11-13T02:44:05.342Z,1003.00
2018-11-13T02:45:05.334Z,1003.00
2018-11-13T02:46:05.321Z,1003.07
2018-11-13T02:47:05.312Z,1003.10
2018-11-13T02:48:05.301Z,1003.11
2018-11-13T02:49:05.291Z,1003.14
2018-11-13T02:50:05.281Z,1003.19
2018-11-13T02:51:05.283Z,1003.23
2018-11-13T02:52:05.261Z,1003.30
2018-11-13T02:53:05.250Z,1003.28
2018-11-13T02:54:05.239Z,1003.31
2018-11-13T02:55:05.233Z,1003.30
2018-11-13T02:56:05.219Z,1003.33
2018-11-13T02:57:05.208Z,1003.36
2018-11-13T02:58:05.198Z,1003.36
2018-11-13T02:59:05.188Z,1003.35
2018-11-13T03:00:05.183Z,1003.35
2018-11-13T03:01:05.168Z,1003.41
2018-11-13T03:02:05.155Z,1003.45
2018-11-13T03:03:05.146Z,1003.50
2018-11-13T03:04:05.143Z,1003.58
2018-11-13T03:05:05.127Z,1003.63
2018-11-13T03:06:05.115Z,1003.58
2018-11-13T03:07:05.105Z,1003.60
2018-11-13T03:08:05.095Z,1003.62
2018-11-13T03:09:05.085Z,1003.60
2018-11-13T03:10:05.074Z,1003.65
2018-11-13T03:11:05.064Z,1003.59
2018-11-13T03:12:05.054Z,1003.56
2018-11-13T03:13:05.044Z,1003.53
2018-11-13T03:14:05.041Z,1003.59
2018-11-13T03:15:05.024Z,1003.64
2018-11-13T03:16:05.015Z,1003.61
2018-11-13T03:17:05.004Z,1003.61
2018-11-13T03:18:04.994Z,1003.65
2018-11-13T03:19:04.983Z,1003.67
2018-11-13T03:20:04.976Z,1003.72
2018-11-13T03:21:04.964Z,1003.75
2018-11-13T03:22:04.953Z,1003.64
2018-11-13T03:23:04.943Z,1003.53
2018-11-13T03:24:04.939Z,1003.57
2018-11-13T03:25:04.924Z,1003.56
2018-11-13T03:26:04.914Z,1003.56
2018-11-13T03:27:05.107Z,1003.43
2018-11-13T03:28:04.893Z,1003.41
2018-11-13T03:29:04.885Z,1003.31
2018-11-13T03:30:04.876Z,1003.28
2018-11-13T03:31:05.141Z,1003.29
2018-11-13T03:32:04.853Z,1003.28
2018-11-13T03:33:04.845Z,1003.35
2018-11-13T03:34:04.834Z,1003.33
2018-11-13T03:35:04.823Z,1003.38
2018-11-13T03:36:04.815Z,1003.38
2018-11-13T03:37:04.802Z,1003.36
2018-11-13T03:38:04.793Z,1003.31
2018-11-13T03:39:04.782Z,1003.28
2018-11-13T03:40:04.771Z,1003.23
2018-11-13T03:41:04.765Z,1003.26
2018-11-13T03:42:04.752Z,1003.24
2018-11-13T03:43:04.742Z,1003.36
2018-11-13T03:44:04.733Z,1003.35
2018-11-13T03:45:04.722Z,1003.47
2018-11-13T03:46:04.711Z,1003.47
2018-11-13T03:47:04.700Z,1003.44
2018-11-13T03:48:04.692Z,1003.46
2018-11-13T03:49:04.686Z,1003.55
2018-11-13T03:50:04.671Z,1003.55
2018-11-13T03:51:04.661Z,1003.53
2018-11-13T03:52:04.651Z,1003.48
2018-11-13T03:53:04.641Z,1003.48
2018-11-13T03:54:04.631Z,1003.51
2018-11-13T03:55:04.620Z,1003.42
2018-11-13T03:56:04.609Z,1003.36
2018-11-13T03:57:04.600Z,1003.33
2018-11-13T03:58:04.589Z,1003.30
2018-11-13T03:59:04.591Z,1003.31
2018-11-13T04:00:04.570Z,1003.23
2018-11-13T04:01:04.559Z,1003.30
2018-11-13T04:02:04.548Z,1003.35
2018-11-13T04:03:04.539Z,1003.31
2018-11-13T04:04:04.529Z,1003.34
2018-11-13T04:05:04.519Z,1003.40
2018-11-13T04:06:04.508Z,1003.44
2018-11-13T04:07:04.499Z,1003.45
2018-11-13T04:08:04.494Z,1003.44
2018-11-13T04:09:04.481Z,1003.41
2018-11-13T04:10:04.467Z,1003.43
2018-11-13T04:11:04.458Z,1003.43
2018-11-13T04:12:04.447Z,1003.51
2018-11-13T04:13:04.437Z,1003.40
2018-11-13T04:14:04.428Z,1003.31
2018-11-13T04:15:04.416Z,1003.33
2018-11-13T04:16:04.406Z,1003.32
2018-11-13T04:17:04.396Z,1003.39
2018-11-13T04:18:04.385Z,1003.53
2018-11-13T04:19:04.374Z,1003.61
2018-11-13T04:20:04.365Z,1003.65
2018-11-13T04:21:04.353Z,1003.63
2018-11-13T04:22:04.345Z,1003.56
2018-11-13T04:23:04.333Z,1003.52
2018-11-13T04:24:04.324Z,1003.47
2018-11-13T04:25:04.313Z,1003.42
2018-11-13T04:26:04.302Z,1003.54
2018-11-13T04:27:04.291Z,1003.60
2018-11-13T04:28:04.282Z,1003.57
2018-11-13T04:29:04.273Z,1003.59
2018-11-13T04:30:04.261Z,1003.56
2018-11-13T04:31:04.251Z,1003.54
2018-11-13T04:32:04.241Z,1003.51
2018-11-13T04:33:04.230Z,1003.61
2018-11-13T04:34:04.220Z,1003.65
2018-11-13T04:35:04.413Z,1003.62
2018-11-13T04:36:04.204Z,1003.68
2018-11-13T04:37:04.189Z,1003.67
2018-11-13T04:38:04.177Z,1003.69
2018-11-13T04:39:04.167Z,1003.63
2018-11-13T04:40:04.163Z,1003.64
2018-11-13T04:41:04.152Z,1003.67
2018-11-13T04:42:04.137Z,1003.65
2018-11-13T04:43:04.127Z,1003.66
2018-11-13T04:44:04.116Z,1003.66
2018-11-13T04:45:04.111Z,1003.68
2018-11-13T04:46:04.094Z,1003.64
2018-11-13T04:47:04.086Z,1003.60
2018-11-13T04:48:04.075Z,1003.60
2018-11-13T04:49:04.065Z,1003.53
2018-11-13T04:50:04.053Z,1003.67
2018-11-13T04:51:04.043Z,1003.70
2018-11-13T04:52:04.540Z,1003.71
2018-11-13T04:53:04.023Z,1003.71
2018-11-13T04:54:04.213Z,1003.74
2018-11-13T04:55:04.001Z,1003.77
2018-11-13T04:56:03.992Z,1003.82
2018-11-13T04:57:03.981Z,1003.83
2018-11-13T04:58:03.972Z,1003.80
2018-11-13T04:59:03.960Z,1003.86
2018-11-13T05:00:03.949Z,1003.85
2018-11-13T05:01:03.939Z,1003.75
2018-11-13T05:02:03.928Z,1003.75
2018-11-13T05:03:04.026Z,1003.75
2018-11-13T05:04:04.110Z,1003.78
2018-11-13T05:05:03.901Z,1003.75
2018-11-13T05:06:03.887Z,1003.71
2018-11-13T05:07:03.877Z,1003.67
2018-11-13T05:08:03.865Z,1003.76
2018-11-13T05:09:03.856Z,1003.73
2018-11-13T05:10:03.851Z,1003.71
2018-11-13T05:11:03.837Z,1003.77
2018-11-13T05:12:03.823Z,1003.78
2018-11-13T05:13:03.815Z,1003.81
2018-11-13T05:14:03.802Z,1003.75
2018-11-13T05:15:03.793Z,1003.81
2018-11-13T05:16:03.786Z,1003.82
2018-11-13T05:17:03.773Z,1003.86
2018-11-13T05:18:03.761Z,1003.80
2018-11-13T05:19:03.750Z,1003.86
2018-11-13T05:20:03.741Z,1003.81
2018-11-13T05:21:03.730Z,1003.81
2018-11-13T05:22:03.718Z,1003.86
2018-11-13T05:23:03.743Z,1003.84
2018-11-13T05:24:03.698Z,1003.94
2018-11-13T05:25:03.688Z,1003.92
2018-11-13T05:26:03.676Z,1003.92
2018-11-13T05:27:03.666Z,1003.93
2018-11-13T05:28:03.656Z,1003.95
2018-11-13T05:29:03.646Z,1003.94
2018-11-13T05:30:03.635Z,1003.97
2018-11-13T05:31:03.624Z,1003.98
2018-11-13T05:32:03.614Z,1003.98
2018-11-13T05:33:03.603Z,1003.97
2018-11-13T05:34:03.594Z,1003.99
2018-11-13T05:35:03.581Z,1003.88
2018-11-13T05:36:03.572Z,1003.98
2018-11-13T05:37:03.561Z,1004.01
2018-11-13T05:38:03.550Z,1004.00
2018-11-13T05:39:03.540Z,1004.10
2018-11-13T05:40:03.530Z,1004.05
2018-11-13T05:41:03.519Z,1004.08
2018-11-13T05:42:03.507Z,1004.11
2018-11-13T05:43:03.497Z,1004.13
2018-11-13T05:44:03.485Z,1004.10
2018-11-13T05:45:03.476Z,1004.19
2018-11-13T05:46:03.464Z,1004.16
2018-11-13T05:47:03.469Z,1004.20
2018-11-13T05:48:03.444Z,1004.16
2018-11-13T05:49:03.433Z,1004.24
2018-11-13T05:50:03.432Z,1004.24
2018-11-13T05:51:03.415Z,1004.22
2018-11-13T05:52:03.401Z,1004.26
2018-11-13T05:53:03.390Z,1004.28
2018-11-13T05:54:03.379Z,1004.29
2018-11-13T05:55:03.369Z,1004.35
2018-11-13T05:56:03.358Z,1004.32
2018-11-13T05:57:03.348Z,1004.30
2018-11-13T05:58:03.336Z,1004.35
2018-11-13T05:59:03.325Z,1004.30
2018-11-13T06:00:03.518Z,1004.28
2018-11-13T06:01:03.310Z,1004.30
2018-11-13T06:02:03.296Z,1004.29
2018-11-13T06:03:03.282Z,1004.33
2018-11-13T06:04:03.271Z,1004.34
2018-11-13T06:05:03.268Z,1004.35
2018-11-13T06:06:03.248Z,1004.36
2018-11-13T06:07:03.240Z,1004.39
2018-11-13T06:08:03.228Z,1004.43
2018-11-13T06:09:03.216Z,1004.37
2018-11-13T06:10:03.205Z,1004.41
2018-11-13T06:11:03.195Z,1004.40
2018-11-13T06:12:03.186Z,1004.38
2018-11-13T06:13:03.174Z,1004.41
2018-11-13T06:14:03.224Z,1004.39
2018-11-13T06:15:03.153Z,1004.41
2018-11-13T06:16:03.141Z,1004.42
2018-11-13T06:17:03.130Z,1004.47
2018-11-13T06:18:03.180Z,1004.43
2018-11-13T06:19:03.111Z,1004.52
2018-11-13T06:20:03.098Z,1004.58
2018-11-13T06:21:03.088Z,1004.57
2018-11-13T06:22:03.076Z,1004.52
2018-11-13T06:23:03.136Z,1004.56
2018-11-13T06:24:03.055Z,1004.62
2018-11-13T06:25:03.043Z,1004.66
2018-11-13T06:26:03.031Z,1004.73
2018-11-13T06:27:03.021Z,1004.73
2018-11-13T06:28:03.010Z,1004.74
2018-11-13T06:29:03.000Z,1004.77
2018-11-13T06:30:02.987Z,1004.85
2018-11-13T06:31:02.977Z,1004.87
2018-11-13T06:32:02.967Z,1004.91
2018-11-13T06:33:02.955Z,1004.90
2018-11-13T06:34:02.954Z,1004.93
2018-11-13T06:35:02.940Z,1004.96
2018-11-13T06:36:02.922Z,1004.91
2018-11-13T06:37:02.912Z,1004.97
2018-11-13T06:38:02.900Z,1005.02
2018-11-13T06:39:02.889Z,1004.94
2018-11-13T06:40:02.878Z,1005.02
2018-11-13T06:41:02.871Z,1005.02
2018-11-13T06:42:02.856Z,1005.02
2018-11-13T06:43:02.850Z,1005.07
2018-11-13T06:44:02.840Z,1005.06
2018-11-13T06:45:02.826Z,1005.11
2018-11-13T06:46:02.813Z,1005.09
2018-11-13T06:47:02.811Z,1005.14
2018-11-13T06:48:02.792Z,1005.16
2018-11-13T06:49:02.844Z,1005.24
2018-11-13T06:50:02.772Z,1005.19
2018-11-13T06:51:02.760Z,1005.27
2018-11-13T06:52:02.749Z,1005.31
2018-11-13T06:53:02.739Z,1005.30
2018-11-13T06:54:02.727Z,1005.31
2018-11-13T06:55:02.929Z,1005.37
2018-11-13T06:56:02.707Z,1005.42
2018-11-13T06:57:02.696Z,1005.43
2018-11-13T06:58:02.685Z,1005.41
2018-11-13T06:59:02.673Z,1005.40
2018-11-13T07:00:02.667Z,1005.44
2018-11-13T07:01:02.653Z,1005.39
2018-11-13T07:02:02.642Z,1005.38
2018-11-13T07:03:02.631Z,1005.42
2018-11-13T07:04:02.627Z,1005.43
2018-11-13T07:05:02.664Z,1005.38
2018-11-13T07:06:02.600Z,1005.40
2018-11-13T07:07:02.590Z,1005.43
2018-11-13T07:08:02.580Z,1005.50
2018-11-13T07:09:02.569Z,1005.44
2018-11-13T07:10:02.557Z,1005.45
2018-11-13T07:11:02.563Z,1005.40
2018-11-13T07:12:02.539Z,1005.52
2018-11-13T07:13:02.527Z,1005.45
2018-11-13T07:14:02.516Z,1005.56
2018-11-13T07:15:02.508Z,1005.55
2018-11-13T07:16:02.494Z,1005.62
2018-11-13T07:17:02.485Z,1005.57
2018-11-13T07:18:02.474Z,1005.65
2018-11-13T07:19:02.463Z,1005.70
2018-11-13T07:20:02.454Z,1005.72
2018-11-13T07:21:02.441Z,1005.68
2018-11-13T07:22:02.634Z,1005.72
2018-11-13T07:23:02.420Z,1005.65
2018-11-13T07:24:02.410Z,1005.69
2018-11-13T07:25:02.399Z,1005.75
2018-11-13T07:26:02.388Z,1005.88
2018-11-13T07:27:02.428Z,1005.70
2018-11-13T07:28:02.396Z,1005.72
2018-11-13T07:29:02.358Z,1005.67
2018-11-13T07:30:02.354Z,1005.63
2018-11-13T07:31:02.338Z,1005.71
2018-11-13T07:32:02.325Z,1005.71
2018-11-13T07:33:02.320Z,1005.71
2018-11-13T07:34:02.308Z,1005.73
2018-11-13T07:35:02.296Z,1005.69
2018-11-13T07:36:02.292Z,1005.78
2018-11-13T07:37:02.273Z,1005.71
2018-11-13T07:38:02.262Z,1005.78
2018-11-13T07:39:02.254Z,1005.80
2018-11-13T07:40:02.243Z,1005.85
2018-11-13T07:41:02.287Z,1005.83
2018-11-13T07:42:02.220Z,1005.88
2018-11-13T07:43:02.210Z,1005.79
2018-11-13T07:44:02.200Z,1005.85
2018-11-13T07:45:02.190Z,1005.88
2018-11-13T07:46:02.179Z,1005.81
2018-11-13T07:47:02.291Z,1005.89
2018-11-13T07:48:02.319Z,1005.85
2018-11-13T07:49:02.149Z,1005.88
2018-11-13T07:50:02.154Z,1005.97
2018-11-13T07:51:02.144Z,1006.00
2018-11-13T07:52:02.118Z,1005.99
2018-11-13T07:53:02.108Z,1005.94
2018-11-13T07:54:02.157Z,1005.97
2018-11-13T07:55:02.093Z,1005.96
2018-11-13T07:56:02.084Z,1005.97
2018-11-13T07:57:02.077Z,1005.93
2018-11-13T07:58:02.056Z,1005.88
2018-11-13T07:59:02.045Z,1005.96
2018-11-13T08:00:02.058Z,1005.95
2018-11-13T08:01:02.070Z,1005.94
2018-11-13T08:02:02.568Z,1005.93
2018-11-13T08:03:02.009Z,1005.97
2018-11-13T08:04:01.997Z,1006.01
2018-11-13T08:05:01.984Z,1005.98
2018-11-13T08:06:02.207Z,1005.94
2018-11-13T08:07:01.965Z,1005.98
2018-11-13T08:08:01.959Z,1005.96
2018-11-13T08:09:02.004Z,1005.92
2018-11-13T08:10:01.932Z,1005.98
2018-11-13T08:11:01.922Z,1005.99
2018-11-13T08:12:01.917Z,1006.05
2018-11-13T08:13:02.027Z,1006.09
2018-11-13T08:14:02.091Z,1006.12
2018-11-13T08:15:01.877Z,1006.16
2018-11-13T08:16:01.875Z,1006.21
2018-11-13T08:17:01.865Z,1006.16
2018-11-13T08:18:01.847Z,1006.23
2018-11-13T08:19:01.842Z,1006.20
2018-11-13T08:20:01.829Z,1006.21
2018-11-13T08:21:02.050Z,1006.17
2018-11-13T08:22:01.875Z,1006.18
2018-11-13T08:23:01.795Z,1006.16
2018-11-13T08:24:01.786Z,1006.05
2018-11-13T08:25:01.775Z,1006.14
2018-11-13T08:26:01.763Z,1006.10
2018-11-13T08:27:01.852Z,1006.13
2018-11-13T08:28:01.788Z,1006.20
2018-11-13T08:29:01.891Z,1006.10
2018-11-13T08:30:01.724Z,1006.09
2018-11-13T08:31:01.712Z,1006.13
2018-11-13T08:32:01.705Z,1006.10
2018-11-13T08:33:01.698Z,1006.24
2018-11-13T08:34:01.680Z,1006.17
2018-11-13T08:35:01.853Z,1006.19
2018-11-13T08:36:01.664Z,1006.19
2018-11-13T08:37:01.654Z,1006.22
2018-11-13T08:38:01.641Z,1006.24
2018-11-13T08:39:01.629Z,1006.24
2018-11-13T08:40:01.823Z,1006.27
2018-11-13T08:41:01.613Z,1006.25
2018-11-13T08:42:01.606Z,1006.17
2018-11-13T08:43:01.591Z,1006.24
2018-11-13T08:44:01.608Z,1006.22
2018-11-13T08:45:01.568Z,1006.29
2018-11-13T08:46:03.462Z,1006.26
2018-11-13T08:47:01.547Z,1006.36
2018-11-13T08:48:01.539Z,1006.34
2018-11-13T08:49:01.526Z,1006.34
2018-11-13T08:50:01.516Z,1006.36
2018-11-13T08:51:01.505Z,1006.38
2018-11-13T08:52:01.498Z,1006.39
2018-11-13T08:53:01.490Z,1006.46
2018-11-13T08:54:01.479Z,1006.46
2018-11-13T08:55:01.465Z,1006.37
2018-11-13T08:56:01.463Z,1006.34
2018-11-13T08:57:01.446Z,1006.36
2018-11-13T08:58:01.433Z,1006.35
2018-11-13T08:59:01.490Z,1006.42
2018-11-13T09:00:01.417Z,1006.38
2018-11-13T09:01:01.404Z,1006.43
2018-11-13T09:02:01.400Z,1006.45
2018-11-13T09:03:01.388Z,1006.44
2018-11-13T09:04:01.376Z,1006.48
2018-11-13T09:05:01.401Z,1006.49
2018-11-13T09:06:01.352Z,1006.50
2018-11-13T09:07:01.346Z,1006.57
2018-11-13T09:08:01.337Z,1006.52
2018-11-13T09:09:01.327Z,1006.52
2018-11-13T09:10:01.320Z,1006.52
2018-11-13T09:11:01.308Z,1006.56
2018-11-13T09:12:01.453Z,1006.60
2018-11-13T09:13:01.284Z,1006.57
2018-11-13T09:14:01.281Z,1006.56
2018-11-13T09:15:01.265Z,1006.61
2018-11-13T09:16:01.256Z,1006.59
2018-11-13T09:17:01.245Z,1006.64
2018-11-13T09:18:01.488Z,1006.58
2018-11-13T09:19:01.367Z,1006.71
2018-11-13T09:20:01.216Z,1006.67
2018-11-13T09:21:01.207Z,1006.83
2018-11-13T09:22:01.203Z,1006.70
2018-11-13T09:23:01.190Z,1006.79
2018-11-13T09:24:01.184Z,1006.77
2018-11-13T09:25:01.170Z,1006.85
2018-11-13T09:26:01.162Z,1006.86
2018-11-13T09:27:01.760Z,1006.85
2018-11-13T09:28:01.142Z,1006.91
2018-11-13T09:29:01.136Z,1006.90
2018-11-13T09:30:01.244Z,1006.84
2018-11-13T09:31:01.270Z,1006.98
2018-11-13T09:32:01.106Z,1006.91
2018-11-13T09:33:01.180Z,1006.94
2018-11-13T09:34:01.085Z,1007.05
2018-11-13T09:35:01.091Z,1007.00
2018-11-13T09:36:01.067Z,1006.97
2018-11-13T09:37:01.264Z,1007.01
2018-11-13T09:38:01.053Z,1006.98
2018-11-13T09:39:01.039Z,1006.95
2018-11-13T09:40:01.033Z,1007.09
2018-11-13T09:41:01.021Z,1007.08
2018-11-13T09:42:01.015Z,1007.01
2018-11-13T09:43:01.007Z,1006.99
2018-11-13T09:44:00.995Z,1007.04
2018-11-13T09:45:01.040Z,1007.01
2018-11-13T09:46:01.079Z,1007.10
2018-11-13T09:47:00.963Z,1007.03
2018-11-13T09:48:00.955Z,1007.12
2018-11-13T09:49:00.946Z,1007.18
2018-11-13T09:50:00.945Z,1007.05
2018-11-13T09:51:00.927Z,1007.08
2018-11-13T09:52:00.924Z,1007.15
2018-11-13T09:53:00.914Z,1007.22
2018-11-13T09:54:01.107Z,1007.17
2018-11-13T09:55:00.900Z,1007.11
2018-11-13T09:56:00.890Z,1007.15
2018-11-13T09:57:00.877Z,1007.11
2018-11-13T09:58:00.868Z,1007.11
2018-11-13T09:59:00.918Z,1007.18
2018-11-13T10:00:02.679Z,1007.12
2018-11-13T10:01:00.925Z,1007.19
2018-11-13T10:02:01.349Z,1007.28
2018-11-13T10:03:01.452Z,1007.18
2018-11-13T10:04:01.572Z,1007.39
2018-11-13T10:05:01.487Z,1007.28
2018-11-13T10:06:00.856Z,1007.23
2018-11-13T10:07:00.913Z,1007.26
2018-11-13T10:08:00.804Z,1007.37
2018-11-13T10:09:00.799Z,1007.27
2018-11-13T10:10:00.798Z,1007.45
2018-11-13T10:11:00.788Z,1007.38
2018-11-13T10:12:00.784Z,1007.36
2018-11-13T10:13:00.777Z,1007.35
2018-11-13T10:14:00.772Z,1007.37
2018-11-13T10:15:00.769Z,1007.46
2018-11-13T10:16:00.770Z,1007.41
2018-11-13T10:17:00.802Z,1007.42
2018-11-13T10:18:00.836Z,1007.44
2018-11-13T10:19:01.249Z,1007.46
2018-11-13T10:20:00.946Z,1007.49
2018-11-13T10:21:00.743Z,1007.45
2018-11-13T10:22:00.733Z,1007.50
2018-11-13T10:23:00.730Z,1007.49
2018-11-13T10:24:00.728Z,1007.49
2018-11-13T10:25:00.721Z,1007.46
2018-11-13T10:26:00.717Z,1007.61
2018-11-13T10:27:00.747Z,1007.56
2018-11-13T10:28:00.706Z,1007.56
2018-11-13T10:29:00.773Z,1007.59
2018-11-13T10:30:00.845Z,1007.54
2018-11-13T10:31:00.694Z,1007.58
2018-11-13T10:32:00.689Z,1007.56
2018-11-13T10:33:00.683Z,1007.48
2018-11-13T10:34:00.675Z,1007.55
2018-11-13T10:35:00.675Z,1007.53
2018-11-13T10:37:00.670Z,1007.57
2018-11-13T10:38:00.657Z,1007.55
2018-11-13T10:39:00.651Z,1007.48
2018-11-13T10:40:00.656Z,1007.58
2018-11-13T10:41:00.745Z,1007.45
2018-11-13T10:42:00.635Z,1007.51
2018-11-13T10:43:00.631Z,1007.55
2018-11-13T10:44:00.624Z,1007.57
2018-11-13T10:45:00.621Z,1007.60
2018-11-13T10:46:00.612Z,1007.53
2018-11-13T10:47:00.607Z,1007.63
2018-11-13T10:48:00.600Z,1007.55
2018-11-13T10:49:00.682Z,1007.58
2018-11-13T10:50:01.840Z,1007.50
2018-11-13T10:51:00.587Z,1007.48
2018-11-13T10:52:00.572Z,1007.56
2018-11-13T10:53:00.574Z,1007.62
2018-11-13T10:54:00.556Z,1007.57
2018-11-13T10:55:00.549Z,1007.56
2018-11-13T10:56:00.548Z,1007.64
2018-11-13T10:57:00.541Z,1007.60
2018-11-13T10:58:00.526Z,1007.57
2018-11-13T10:59:00.518Z,1007.53
2018-11-13T11:00:00.509Z,1007.55
2018-11-13T11:01:00.503Z,1007.59
2018-11-13T11:02:00.494Z,1007.55
2018-11-13T11:03:00.571Z,1007.56
2018-11-13T11:04:00.483Z,1007.55
2018-11-13T11:05:00.471Z,1007.55
2018-11-13T11:06:00.465Z,1007.64
2018-11-13T11:07:00.457Z,1007.68
2018-11-13T11:08:00.445Z,1007.54
2018-11-13T11:09:00.438Z,1007.54
2018-11-13T11:10:00.432Z,1007.60
2018-11-13T11:11:00.421Z,1007.56
2018-11-13T11:12:00.616Z,1007.59
2018-11-13T11:13:00.546Z,1007.59
2018-11-13T11:14:00.798Z,1007.58
2018-11-13T11:15:00.401Z,1007.58
2018-11-13T11:16:00.384Z,1007.55
2018-11-13T11:17:00.373Z,1007.63
2018-11-13T11:18:00.415Z,1007.58
2018-11-13T11:19:00.548Z,1007.58
2018-11-13T11:20:00.350Z,1007.57
2018-11-13T11:21:00.545Z,1007.51
2018-11-13T11:22:00.337Z,1007.54
2018-11-13T11:23:00.344Z,1007.62
2018-11-13T11:24:00.357Z,1007.66
2018-11-13T11:25:00.327Z,1007.63
2018-11-13T11:26:00.303Z,1007.63
2018-11-13T11:27:01.797Z,1007.65
2018-11-13T11:28:00.401Z,1007.69
2018-11-13T11:29:00.282Z,1007.67
2018-11-13T11:30:00.473Z,1007.70
2018-11-13T11:31:00.319Z,1007.65
2018-11-13T11:32:00.258Z,1007.66
2018-11-13T11:33:00.252Z,1007.61
2018-11-13T11:34:00.248Z,1007.67
2018-11-13T11:35:00.240Z,1007.71
2018-11-13T11:36:00.235Z,1007.71
2018-11-13T11:37:00.226Z,1007.68
2018-11-13T11:38:00.220Z,1007.72
2018-11-13T11:39:00.447Z,1007.72
2018-11-13T11:40:00.209Z,1007.82
2018-11-13T11:41:00.255Z,1007.78
2018-11-13T11:42:00.301Z,1007.74
2018-11-13T11:43:00.194Z,1007.69
2018-11-13T11:44:00.188Z,1007.76
2018-11-13T11:45:00.233Z,1007.91
2018-11-13T11:46:01.637Z,1007.75
2018-11-13T11:47:00.222Z,1007.77
2018-11-13T11:48:00.220Z,1007.80
2018-11-13T11:49:00.214Z,1007.79
2018-11-13T11:50:00.206Z,1007.92
2018-11-13T11:51:00.159Z,1007.86
2018-11-13T11:52:00.150Z,1007.90
2018-11-13T11:53:00.188Z,1007.81
2018-11-13T11:54:00.353Z,1007.78
2018-11-13T11:55:00.132Z,1007.82
2018-11-13T11:56:00.119Z,1007.77
2018-11-13T11:57:00.118Z,1007.79
2018-11-13T11:58:00.106Z,1007.84
2018-11-13T11:59:00.101Z,1007.79
2018-11-13T12:00:00.099Z,1007.79
2018-11-13T12:01:00.091Z,1007.80
2018-11-13T12:02:00.100Z,1007.84
2018-11-13T12:03:00.082Z,1007.88
2018-11-13T12:04:00.067Z,1007.88
2018-11-13T12:05:00.059Z,1007.85
2018-11-13T12:06:00.052Z,1007.91